createdAt,value
2022-11-24T00:02:56.610Z,1.10
2022-11-24T00:08:18.523Z,1.10
2022-11-24T00:13:40.578Z,1.00
2022-11-24T00:19:04.377Z,0.93
2022-11-24T00:24:26.002Z,1.50
2022-11-24T00:29:47.640Z,1.00
2022-11-24T00:35:09.389Z,1.00
2022-11-24T00:40:34.987Z,0.93
2022-11-24T00:45:57.154Z,1.10
2022-11-24T00:51:21.369Z,0.80
2022-11-24T00:56:43.205Z,0.88
2022-11-24T01:02:04.922Z,0.88
2022-11-24T01:07:26.724Z,0.95
2022-11-24T01:12:48.459Z,0.70
2022-11-24T01:18:10.174Z,0.82
2022-11-24T01:23:32.668Z,0.90
2022-11-24T01:28:56.368Z,0.98
2022-11-24T01:34:18.056Z,0.90
2022-11-24T01:39:39.815Z,0.90
2022-11-24T01:45:29.994Z,0.98
2022-11-24T01:50:57.758Z,0.90
2022-11-24T01:56:20.112Z,0.80
2022-11-24T02:01:41.872Z,0.70
2022-11-24T02:07:06.977Z,0.57
2022-11-24T02:12:28.968Z,0.63
2022-11-24T02:17:50.665Z,0.93
2022-11-24T02:23:24.996Z,0.88
2022-11-24T02:28:47.602Z,0.98
2022-11-24T02:34:09.251Z,0.95
2022-11-24T02:39:30.939Z,0.70
2022-11-24T02:44:57.568Z,0.60
2022-11-24T02:50:19.644Z,0.90
2022-11-24T02:55:41.573Z,1.13
2022-11-24T03:01:03.427Z,0.80
2022-11-24T03:06:25.113Z,0.95
2022-11-24T03:11:46.843Z,1.13
2022-11-24T03:17:08.684Z,0.93
2022-11-24T03:22:30.339Z,1.10
2022-11-24T03:27:52.076Z,0.88
2022-11-24T03:33:13.732Z,0.82
2022-11-24T03:38:35.582Z,0.93
2022-11-24T03:43:57.287Z,0.90
2022-11-24T03:49:19.102Z,0.95
2022-11-24T03:54:41.010Z,1.00
2022-11-24T04:00:02.783Z,0.98
2022-11-24T04:05:25.404Z,0.80
2022-11-24T04:10:51.408Z,1.02
2022-11-24T04:16:13.215Z,0.80
2022-11-24T04:21:35.025Z,1.17
2022-11-24T04:26:56.668Z,0.80
2022-11-24T04:32:18.554Z,0.73
2022-11-24T04:37:40.826Z,0.90
2022-11-24T04:43:02.508Z,1.05
2022-11-24T04:48:24.182Z,0.90
2022-11-24T04:53:46.087Z,0.70
2022-11-24T04:59:08.609Z,0.95
2022-11-24T05:04:30.551Z,0.60
2022-11-24T05:10:10.684Z,0.90
2022-11-24T05:15:32.416Z,0.60
2022-11-24T05:20:54.095Z,0.88
2022-11-24T05:26:15.792Z,0.75
2022-11-24T05:31:37.574Z,0.70
2022-11-24T05:37:03.217Z,0.90
2022-11-24T05:48:15.249Z,0.60
2022-11-24T05:53:36.907Z,0.52
2022-11-24T05:58:58.549Z,0.63
2022-11-24T06:04:20.192Z,0.80
2022-11-24T06:09:43.203Z,0.60
2022-11-24T06:15:05.364Z,0.50
2022-11-24T06:20:31.320Z,0.70
2022-11-24T06:25:54.387Z,0.65
2022-11-24T06:31:16.173Z,0.75
2022-11-24T06:36:38.758Z,0.90
2022-11-24T06:42:00.604Z,0.65
2022-11-24T06:47:22.241Z,1.10
2022-11-24T06:52:43.880Z,0.88
2022-11-24T06:58:05.563Z,0.73
2022-11-24T07:03:27.549Z,0.88
2022-11-24T07:08:50.145Z,0.70
2022-11-24T07:14:11.882Z,0.47
2022-11-24T07:19:33.629Z,0.50
2022-11-24T07:24:55.366Z,0.60
2022-11-24T07:30:17.326Z,0.82
2022-11-24T07:35:39.008Z,0.40
2022-11-24T07:41:02.451Z,0.70
2022-11-24T07:46:24.259Z,0.73
2022-11-24T07:51:46.132Z,0.57
2022-11-24T07:57:07.768Z,0.65
2022-11-24T08:02:29.427Z,0.75
2022-11-24T08:07:51.125Z,0.43
2022-11-24T08:13:13.122Z,0.70
2022-11-24T08:18:35.758Z,0.80
2022-11-24T08:23:58.040Z,0.63
2022-11-24T08:29:19.751Z,1.00
2022-11-24T08:34:41.401Z,0.45
2022-11-24T08:40:03.184Z,0.70
2022-11-24T08:45:25.796Z,0.50
2022-11-24T08:50:47.570Z,0.60
2022-11-24T08:56:11.175Z,0.60
2022-11-24T09:01:33.002Z,0.90
2022-11-24T09:06:54.876Z,0.80
2022-11-24T09:12:16.707Z,0.70
2022-11-24T09:17:38.439Z,0.70
2022-11-24T09:23:00.171Z,0.98
2022-11-24T09:28:21.850Z,0.75
2022-11-24T09:33:44.690Z,0.80
2022-11-24T09:39:06.544Z,0.90
2022-11-24T09:44:49.568Z,0.88
2022-11-24T09:50:13.873Z,0.93
2022-11-24T09:55:38.636Z,0.80
2022-11-24T10:01:00.579Z,0.93
2022-11-24T10:06:34.831Z,0.68
2022-11-24T10:12:16.575Z,0.60
2022-11-24T10:18:03.157Z,0.70
2022-11-24T10:23:44.551Z,0.70
2022-11-24T10:29:30.673Z,0.70
2022-11-24T10:34:54.289Z,0.80
2022-11-24T10:40:55.501Z,0.80
2022-11-24T10:46:19.814Z,0.47
2022-11-24T10:52:01.544Z,0.80
2022-11-24T10:57:34.591Z,0.70
2022-11-24T11:03:19.733Z,0.90
2022-11-24T11:08:41.448Z,0.80
2022-11-24T11:14:08.998Z,0.70
2022-11-24T11:19:50.933Z,0.52
2022-11-24T11:25:13.555Z,0.70
2022-11-24T11:36:17.317Z,0.63
2022-11-24T11:41:45.033Z,0.77
2022-11-24T11:47:27.955Z,0.90
2022-11-24T11:53:27.371Z,0.70
2022-11-24T11:58:51.937Z,0.95
2022-11-24T12:04:21.396Z,0.98
2022-11-24T12:09:55.291Z,1.05
2022-11-24T12:15:48.123Z,0.90
2022-11-24T12:21:27.021Z,0.80
2022-11-24T12:26:52.564Z,0.90
2022-11-24T12:32:26.048Z,1.05
2022-11-24T12:37:58.326Z,0.80
2022-11-24T12:43:39.020Z,0.50
2022-11-24T12:49:08.811Z,0.70
2022-11-24T12:54:38.838Z,0.90
2022-11-24T13:00:16.851Z,0.73
2022-11-24T13:06:01.389Z,0.82
2022-11-24T13:11:23.163Z,0.70
2022-11-24T13:17:30.042Z,0.73
2022-11-24T13:22:40.244Z,0.80
2022-11-24T13:28:04.096Z,0.47
2022-11-24T13:33:29.965Z,0.70
2022-11-24T13:38:53.071Z,0.70
2022-11-24T13:44:15.004Z,0.70
2022-11-24T13:49:48.877Z,0.57
2022-11-24T13:55:13.637Z,1.05
2022-11-24T14:00:58.451Z,0.50
2022-11-24T14:06:35.854Z,0.75
2022-11-24T14:12:03.847Z,0.70
2022-11-24T14:17:28.640Z,0.90
2022-11-24T14:22:51.245Z,0.70
2022-11-24T14:28:22.850Z,0.80
2022-11-24T14:33:44.526Z,0.77
2022-11-24T14:39:06.838Z,0.65
2022-11-24T14:44:31.560Z,0.60
2022-11-24T14:49:54.746Z,0.73
2022-11-24T14:55:30.869Z,0.80
2022-11-24T15:01:20.635Z,1.67
2022-11-24T15:06:44.335Z,0.95
2022-11-24T15:12:17.006Z,1.17
2022-11-24T15:17:47.413Z,1.20
2022-11-24T15:23:25.408Z,1.17
2022-11-24T15:28:47.279Z,0.98
2022-11-24T15:34:14.309Z,1.10
2022-11-24T15:39:36.181Z,0.65
2022-11-24T15:44:57.822Z,1.02
2022-11-24T15:50:20.078Z,0.90
2022-11-24T15:55:41.747Z,0.80
2022-11-24T16:01:03.503Z,0.82
2022-11-24T16:06:25.758Z,1.02
2022-11-24T16:11:47.532Z,1.00
2022-11-24T16:17:09.137Z,0.73
2022-11-24T16:22:30.796Z,0.90
2022-11-24T16:27:52.886Z,0.77
2022-11-24T16:33:14.580Z,0.55
2022-11-24T16:38:36.240Z,0.73
2022-11-24T16:43:58.099Z,0.80
2022-11-24T16:49:19.985Z,1.13
2022-11-24T16:54:41.850Z,0.90
2022-11-24T17:00:05.492Z,1.15
2022-11-24T17:05:27.747Z,1.05
2022-11-24T17:10:49.435Z,1.20
2022-11-24T17:16:14.178Z,0.90
2022-11-24T17:21:35.986Z,0.80
2022-11-24T17:26:57.614Z,0.90
2022-11-24T17:32:19.298Z,1.00
2022-11-24T17:37:40.998Z,1.10
2022-11-24T17:43:02.893Z,1.48
2022-11-24T17:48:25.035Z,0.90
2022-11-24T17:53:49.442Z,1.10
2022-11-24T17:59:11.225Z,1.27
2022-11-24T18:04:34.082Z,1.33
2022-11-24T18:09:55.897Z,1.60
2022-11-24T18:15:17.692Z,1.70
2022-11-24T18:20:42.298Z,1.33
2022-11-24T18:26:05.755Z,1.05
2022-11-24T18:31:27.601Z,1.10
2022-11-24T18:36:52.256Z,1.17
2022-11-24T18:42:14.271Z,1.20
2022-11-24T18:47:35.920Z,1.00
2022-11-24T18:52:57.769Z,1.08
2022-11-24T18:58:22.148Z,1.77
2022-11-24T19:03:48.736Z,1.55
2022-11-24T19:09:18.990Z,2.35
2022-11-24T19:14:40.736Z,1.58
2022-11-24T19:20:02.806Z,1.65
2022-11-24T19:25:24.479Z,1.52
2022-11-24T19:30:46.234Z,1.60
2022-11-24T19:36:13.836Z,1.30
2022-11-24T19:41:35.633Z,1.30
2022-11-24T19:46:57.278Z,1.40
2022-11-24T19:52:18.971Z,1.90
2022-11-24T19:57:40.628Z,1.60
2022-11-24T20:03:02.369Z,1.60
2022-11-24T20:08:24.059Z,2.15
2022-11-24T20:13:47.212Z,2.20
2022-11-24T20:19:13.282Z,1.92
2022-11-24T20:24:35.057Z,1.95
2022-11-24T20:29:57.021Z,1.60
2022-11-24T20:35:18.983Z,1.55
2022-11-24T20:40:43.775Z,1.27
2022-11-24T20:46:08.654Z,1.30
2022-11-24T20:51:34.003Z,1.85
2022-11-24T20:56:55.644Z,2.15
2022-11-24T21:02:17.392Z,1.58
2022-11-24T21:07:39.131Z,1.45
2022-11-24T21:13:00.867Z,1.42
2022-11-24T21:18:22.530Z,1.30
2022-11-24T21:23:47.295Z,0.95
2022-11-24T21:29:11.668Z,1.37
2022-11-24T21:34:33.627Z,1.20
2022-11-24T21:39:55.420Z,1.20
2022-11-24T21:45:17.201Z,1.10
2022-11-24T21:50:39.074Z,1.30
2022-11-24T21:56:02.815Z,1.20
2022-11-24T22:01:28.243Z,1.20
2022-11-24T22:12:11.666Z,1.00
2022-11-24T22:17:33.302Z,1.30
2022-11-24T22:22:55.022Z,1.05
2022-11-24T22:28:16.663Z,0.88
2022-11-24T22:33:38.983Z,1.10
2022-11-24T22:39:05.791Z,0.80
2022-11-24T22:44:27.421Z,0.93
2022-11-24T22:49:49.187Z,0.77
2022-11-24T22:55:10.818Z,1.17
2022-11-24T23:00:32.459Z,0.73
2022-11-24T23:05:54.279Z,0.90
2022-11-24T23:11:25.850Z,1.13
2022-11-24T23:16:50.950Z,1.13
2022-11-24T23:22:12.650Z,0.77
2022-11-24T23:27:34.586Z,0.70
2022-11-24T23:32:56.231Z,0.75
2022-11-24T23:38:18.041Z,0.60
2022-11-24T23:43:41.933Z,0.70
2022-11-24T23:49:03.982Z,0.80
2022-11-24T23:54:25.619Z,0.57
2022-11-24T23:59:47.273Z,0.85
